Details From SAWH - Ushuaia_Intl_Islas Malvinas
To SCRM - TENIENTE RODOLFO MARSH MARTIN
Flight Number -
Tags generated
Created
Modified
Stats Distance 530 nm / 982 km
Max Altitude 35,000 ft / 10,668 m
Waypoints 5
Social Downloads 6
Likes 0
Share VATSIM

Download

Looking for another format? Having issues loading an existing format? Contact us
Advertisement - Login to hide

Notes

Basic altitude profile: - Ascent Rate: 2500ft/min - Ascent Speed: 250kts - Cruise Altitude: 9000ft - Cruise Speed: 180kts - Descent Rate: 1500ft/min - Descent Speed: 250kts Options: - Use NATs: yes - Use PACOTS: yes - Use low airways: yes - Use high airways: yes

Route

SAWH HORNO UW100 KRILL SCRM

ID Type Via Altitude Latitude Longitude Leg Dist Tot Dist Heading (true) Name
O SAWH APT - 0 ft / 0 m -54.84331˚ -68.29490˚ - 0 nm - Ushuaia_Intl_Islas Malvinas
HORNO FIX - 35,000 ft / 10,668 m -56.47704˚ -67.26751˚ 104 nm 104 nm 161° / 160° -
DRAKE FIX UW100 (AWY-HI) 35,000 ft / 10,668 m -59.30816˚ -63.59561˚ 206 nm 310 nm 147° / 144° -
KRILL FIX UW100 (AWY-HI) 23,500 ft / 7,163 m -61.20611˚ -60.68639˚ 143 nm 453 nm 144° / 141° -
O SCRM APT - 0 ft / 0 m -62.19091˚ -58.98722˚ 76 nm 530 nm 141° / 140° TENIENTE RODOLFO MARSH MARTIN

Altitude Profile

Advertisement - Login to hide

Weather


0- 5 10 15 20 25 30 35+ Temperature / ° C

Clouds and Precipitation
Forecast for 2017-12-16 12:00 UTC. Updated 6 minutes ago

Ground ~20,000 ft ~40,000 ft Winds

SAWH

Details ICAO SAWH (USH)
Name Ushuaia_Intl_Islas Malvinas
Region Argentina
Timezone America/Argentina/Ushuaia (UTC-3.0)
Stats Elevation 91 ft / 28 m (AMSL)
Location -54.843310° -68.294897°
Runways 1
Magnetic Variation 12.407° E

METAR

SAWH 160700Z 27011KT 9999 BKN040 SCT090 03/00 Q0981

Decode

TAF

TAF SAWH 160500Z 1606/1706 23020KT 9999 SCT035 TX08/1617Z TN03/1610Z BECMG 1611/1613 25020G30KT 9999 BKN025 BKN040 TEMPO 1613/1620 8000 SHRA

Decode

Departure Runways

ID Width Length Bearing (true) Bearing (mag) Surface Threshold Offset Overrun Length
07 148 ft / 45 m 9,531 ft / 2,905 m 86.11° 73.70° Concrete 591 ft / 180 m 295 ft / 90 m
25 148 ft / 45 m 9,531 ft / 2,905 m 266.08° 253.67° Concrete 899 ft / 274 m 98 ft / 30 m

SCRM

Details ICAO SCRM
Name TENIENTE RODOLFO MARSH MARTIN
Region Chile
Timezone uninhabited (UTC+0.0)
Stats Elevation 147 ft / 45 m (AMSL)
Location -62.190905° -58.987224°
Runways 1
Magnetic Variation 10.825° E

METAR

SCRM 160700Z 02005KT 9999 FEW010 BKN200 M04/M05 Q0976

Decode

TAF

Not found

Destination Runways

ID Width Length Bearing (true) Bearing (mag) Surface Threshold Offset Overrun Length
11 210 ft / 64 m 4,227 ft / 1,288 m 116.91° 106.08° Dirt 0 ft / 0 m 0 ft / 0 m
29 210 ft / 64 m 4,227 ft / 1,288 m 296.89° 286.06° Dirt 0 ft / 0 m 0 ft / 0 m

Popular Alternatives